| Date | Time | Temp. (oF) | Dew Point (oF) | Rel. Hum. (%) | Press. (in.) | Wind Dir. | Wind Speed (mph) | Hourly Rainfall (in.) |
|
|---|---|---|---|---|---|---|---|---|---|
| 1 | 03/04 | 00:00 | 31 | 29 | 94 | 29.82 | S | 7 | 0.00 |
| 2 | 03/03 | 23:00 | 32 | 30 | 93 | 29.87 | SSW | 5 | 0.00 |
| 3 | 03/03 | 22:00 | 32 | 30 | 95 | 29.89 | S | 9 | 0.00 |
| 4 | 03/03 | 21:00 | 30 | 29 | 96 | 29.92 | S | 4 | 0.01 |
| 5 | 03/03 | 20:00 | 29 | 27 | 94 | 29.96 | S | 8 | 0.00 |
| 6 | 03/03 | 19:00 | 28 | 27 | 96 | 30.01 | W | 7 | 0.05 |
| 7 | 03/03 | 18:00 | 26 | 25 | 96 | 30.06 | SSE | 4 | 0.08 |
| 8 | 03/03 | 17:00 | 26 | 24 | 94 | 30.09 | S | 4 | 0.05 |
| 9 | 03/03 | 16:00 | 26 | 24 | 93 | 30.12 | E | 4 | 0.04 |
| 10 | 03/03 | 15:00 | 26 | 22 | 87 | 30.19 | SSE | 3 | 0.03 |
| 11 | 03/03 | 14:00 | 26 | 18 | 73 | 30.22 | SSE | 8 | 0.00 |
| 12 | 03/03 | 13:00 | 28 | 14 | 57 | 30.26 | SSE | 6 | 0.00 |
| 13 | 03/03 | 12:00 | 28 | 15 | 58 | 30.31 | SSW | 2 | 0.00 |
| 14 | 03/03 | 11:00 | 27 | 14 | 59 | 30.35 | SE | 0 | 0.00 |
| 15 | 03/03 | 10:00 | 26 | 13 | 58 | 30.38 | SSE | 4 | 0.00 |
| 16 | 03/03 | 09:00 | 25 | 14 | 63 | 30.41 | E | 4 | 0.00 |
| 17 | 03/03 | 08:00 | 23 | 12 | 64 | 30.41 | ESE | 2 | 0.00 |
| 18 | 03/03 | 07:00 | 22 | 12 | 67 | 30.42 | SE | 0 | 0.00 |
| 19 | 03/03 | 06:00 | 22 | 12 | 65 | 30.42 | NE | 0 | 0.00 |
| 20 | 03/03 | 05:00 | 22 | 10 | 62 | 30.41 | E | 0 | 0.00 |
| 21 | 03/03 | 04:00 | 22 | 11 | 64 | 30.41 | NNE | 3 | 0.00 |
| 22 | 03/03 | 03:00 | 22 | 13 | 69 | 30.39 | NNE | 3 | 0.00 |
| 23 | 03/03 | 02:00 | 23 | 14 | 69 | 30.39 | NNW | 1 | 0.00 |
| 24 | 03/03 | 01:00 | 23 | 14 | 71 | 30.39 | WSW | 3 | 0.00 |